TimeMST,TemperatureF,Dew PointF,Humidity,Sea Level PressureIn,VisibilityMPH,Wind Direction,Wind SpeedMPH,Gust SpeedMPH,PrecipitationIn,Events,Conditions,WindDirDegrees,DateUTC
12:55 AM,40.8,28.4,61,29.96,10.0,NW,26.5,33.4,N/A,,Clear,310,2013-01-16 07:55:00
1:55 AM,40.5,26.1,57,29.97,10.0,NW,18.4,-,N/A,,Clear,320,2013-01-16 08:55:00
2:55 AM,41.2,23.9,50,29.99,10.0,WNW,16.1,-,N/A,,Mostly Cloudy,290,2013-01-16 09:55:00
3:55 AM,40.8,22.8,49,29.99,10.0,NW,15.0,-,N/A,,Mostly Cloudy,310,2013-01-16 10:55:00
4:55 AM,42.1,21.9,45,29.97,10.0,West,4.6,-,N/A,,Overcast,270,2013-01-16 11:55:00
5:55 AM,42.8,20.7,41,29.98,10.0,NW,15.0,20.7,N/A,,Overcast,310,2013-01-16 12:55:00
6:55 AM,43.2,20.7,41,29.98,10.0,WNW,18.4,26.5,N/A,,Scattered Clouds,300,2013-01-16 13:55:00
7:55 AM,44.1,20.1,39,29.98,10.0,WNW,21.9,31.1,N/A,,Mostly Cloudy,300,2013-01-16 14:55:00
8:55 AM,44.4,19.9,38,30.01,10.0,NW,27.6,35.7,N/A,,Overcast,320,2013-01-16 15:55:00
9:55 AM,44.4,20.5,39,30.05,10.0,NW,24.2,36.8,N/A,,Overcast,310,2013-01-16 16:55:00
10:55 AM,44.6,21.4,40,30.07,10.0,NW,24.2,34.5,N/A,,Overcast,320,2013-01-16 17:55:00
11:55 AM,45.9,21.9,39,30.07,10.0,NW,33.4,42.6,N/A,,Partly Cloudy,320,2013-01-16 18:55:00
12:55 PM,47.5,22.6,38,30.07,10.0,NW,25.3,32.2,N/A,,Partly Cloudy,310,2013-01-16 19:55:00
1:55 PM,46.4,21.7,38,30.11,10.0,NNW,24.2,-,N/A,,Overcast,330,2013-01-16 20:55:00
2:55 PM,44.2,22.3,42,30.14,10.0,NW,15.0,24.2,N/A,,Mostly Cloudy,320,2013-01-16 21:55:00
3:55 PM,43.3,22.1,43,30.14,10.0,NW,13.8,-,N/A,,Scattered Clouds,320,2013-01-16 22:55:00
4:55 PM,41.7,21.0,44,30.18,10.0,NNW,11.5,-,N/A,,Overcast,340,2013-01-16 23:55:00
5:55 PM,40.5,21.7,47,30.21,10.0,NW,11.5,-,N/A,,Mostly Cloudy,320,2013-01-17 00:55:00
6:55 PM,37.8,22.1,53,30.22,10.0,WNW,10.4,-,N/A,,Mostly Cloudy,300,2013-01-17 01:55:00
7:55 PM,33.3,21.6,62,30.24,10.0,WNW,8.1,-,N/A,,Clear,300,2013-01-17 02:55:00
8:55 PM,35.1,21.7,58,30.26,10.0,NW,11.5,-,N/A,,Clear,310,2013-01-17 03:55:00
9:55 PM,37.4,21.0,52,30.26,10.0,NW,12.7,-,N/A,,Clear,310,2013-01-17 04:55:00
10:55 PM,33.3,19.8,58,30.29,10.0,West,5.8,-,N/A,,Clear,270,2013-01-17 05:55:00
11:55 PM,30.4,19.4,64,30.31,10.0,West,6.9,-,N/A,,Clear,260,2013-01-17 06:55:00